Alban, Wisconsin
Current Conditions -  °F | °C
As of 11:15 PM on Wednesday 26 Nov 2014 (Local Time) from KSTE Reporting Station
Overcast Overcast  
Wind Chill: 11°   Ceiling: 1800
Heat Index: 20°   Visibility: 10mi
Dew Point: 16°   Wind: 7mph
Humidity: 85%   Direction: 320°NW
Pressure: 30.22"   Gusts: NA
Location:  44.6794°N, 89.3392°W
Report Text: KSTE 270515Z AUTO 32006KT 10SM OVC018 M07/M09 A3022 RMK AO2 T10661088
Loading
Personal Weather Stations






























Interactive Weather Map New forecast layout! Learn more

10-Day Weather Forecast

Advertisements
Track Severe Weather on mobile